RJSM(METAR)
06/28 23:00
METAR RJSM 281400Z 14003KT 9999 FEW003 SCT/// 16/15 Q1013 RMK 1ST003
A2994=
戻る
トップページへ戻る
IMOC Co,.Ltd.